Time;durP1;ratioP1;P1;durP2;ratioP2;P2;SDS_P1;SDS_P2;PMS_P1;PMS_P2;Temp;Humidity;BMP_temperature;BMP_pressure;BME280_temperature;BME280_humidity;BME280_pressure;Samples;Min_cycle;Max_cycle;Signal;HPM_P1;HPM_P2
2022/08/24 18:01:43;;;;;;;6.97;6.30;;;21.20;99.90;;;;;;5088081;28;20182;-81
2022/08/24 18:04:09;;;;;;;6.23;5.70;;;21.20;99.90;;;;;;5088096;28;20179;-83
2022/08/24 18:06:35;;;;;;;7.17;6.57;;;21.30;99.90;;;;;;5087620;28;20190;-82
2022/08/24 18:09:05;;;;;;;7.00;6.40;;;21.30;99.90;;;;;;5087887;28;20178;-83
2022/08/24 18:11:30;;;;;;;6.73;6.13;;;21.40;99.90;;;;;;5086026;28;20177;-83
2022/08/24 18:13:56;;;;;;;6.50;6.00;;;21.40;99.90;;;;;;5087879;28;20174;-83
2022/08/24 18:16:23;;;;;;;6.30;5.70;;;21.50;99.90;;;;;;5087820;28;20167;-83
2022/08/24 18:18:53;;;;;;;6.88;6.28;;;21.50;99.90;;;;;;5088159;28;20437;-84
2022/08/24 18:21:20;;;;;;;7.57;6.27;;;21.50;99.90;;;;;;5091615;28;20171;-83
2022/08/24 18:23:47;;;;;;;6.50;6.00;;;21.50;99.90;;;;;;5096486;28;20182;-82
2022/08/24 18:26:25;;;;;;;7.13;6.50;;;21.60;99.90;;;;;;5104977;28;20178;-84
2022/08/24 18:28:53;;;;;;;6.40;5.90;;;21.50;99.90;;;;;;5101951;28;20175;-84
2022/08/24 18:31:22;;;;;;;6.80;6.30;;;21.60;99.90;;;;;;5090044;28;20210;-84
2022/08/24 18:33:48;;;;;;;6.93;5.87;;;21.50;99.90;;;;;;5088686;28;20185;-84
2022/08/24 18:36:14;;;;;;;6.47;5.87;;;21.60;99.90;;;;;;5088442;28;20179;-85
2022/08/24 18:38:40;;;;;;;6.60;5.97;;;21.60;99.90;;;;;;5087804;28;20256;-83
2022/08/24 18:41:06;;;;;;;5.97;5.57;;;21.60;99.90;;;;;;5088382;28;20174;-84
2022/08/24 18:43:32;;;;;;;6.80;6.10;;;21.50;99.90;;;;;;5087828;28;20182;-84
2022/08/24 18:45:58;;;;;;;7.07;6.47;;;21.50;99.90;;;;;;5088305;28;20222;-84
2022/08/24 18:48:24;;;;;;;6.77;6.17;;;21.60;99.90;;;;;;5087708;28;20183;-84
2022/08/24 18:50:51;;;;;;;6.90;6.20;;;21.60;99.90;;;;;;5086338;28;20260;-84
2022/08/24 18:53:17;;;;;;;6.80;6.30;;;21.60;99.90;;;;;;5088129;28;20175;-83
2022/08/24 18:55:44;;;;;;;6.27;5.77;;;21.40;99.90;;;;;;5087718;28;20672;-84
2022/08/24 18:58:11;;;;;;;6.57;6.00;;;21.40;99.90;;;;;;5086054;28;20725;-84
2022/08/24 19:00:39;;;;;;;6.80;6.30;;;21.30;99.90;;;;;;5087655;28;20713;-83
2022/08/24 19:03:08;;;;;;;6.93;6.43;;;21.30;99.90;;;;;;5087435;28;20170;-84
2022/08/24 19:05:34;;;;;;;6.63;6.13;;;21.30;99.90;;;;;;5087794;28;20686;-84
2022/08/24 19:08:00;;;;;;;6.50;5.97;;;21.30;99.90;;;;;;5086994;28;20220;-83
2022/08/24 19:10:30;;;;;;;5.17;4.97;;;21.20;99.90;;;;;;5073302;28;20179;-84
2022/08/24 19:13:02;;;;;;;6.23;5.60;;;21.20;99.90;;;;;;5073847;28;20246;-85
2022/08/24 19:15:30;;;;;;;6.00;5.60;;;21.20;99.90;;;;;;5073841;28;20159;-84
2022/08/24 19:17:56;;;;;;;6.17;5.67;;;21.30;99.90;;;;;;5072877;28;20214;-84
2022/08/24 19:20:21;;;;;;;6.03;5.50;;;21.30;99.90;;;;;;5073221;28;20179;-84
2022/08/24 19:22:47;;;;;;;6.73;6.13;;;21.30;99.90;;;;;;5073010;28;20239;-84
2022/08/24 19:25:23;;;;;;;5.90;5.50;;;21.30;99.90;;;;;;5073771;28;20186;-84
2022/08/24 19:27:49;;;;;;;6.33;5.93;;;21.30;99.90;;;;;;5073152;28;20167;-84
2022/08/24 19:30:15;;;;;;;6.13;5.53;;;21.30;99.90;;;;;;5073614;28;20171;-85
2022/08/24 19:32:43;;;;;;;6.40;5.90;;;21.40;99.90;;;;;;5073394;28;20175;-84
2022/08/24 19:35:11;;;;;;;6.43;5.90;;;21.30;99.90;;;;;;5072226;28;20183;-84
2022/08/24 19:37:37;;;;;;;6.60;6.00;;;21.30;99.90;;;;;;5073449;28;20685;-84
2022/08/24 19:40:04;;;;;;;6.63;6.03;;;21.30;99.90;;;;;;5073266;28;20283;-84
2022/08/24 19:42:30;;;;;;;6.87;6.40;;;21.30;99.90;;;;;;5073042;28;20183;-84
2022/08/24 19:47:42;;;;;;;7.17;6.60;;;21.20;99.90;;;;;;5073147;28;20193;-84
2022/08/24 19:50:08;;;;;;;6.60;6.20;;;21.10;99.90;;;;;;5073185;28;20199;-85
2022/08/24 19:52:35;;;;;;;6.33;5.73;;;21.10;99.90;;;;;;5073082;28;20171;-85
2022/08/24 19:55:01;;;;;;;6.60;6.10;;;21.10;99.90;;;;;;5072974;28;20167;-84
2022/08/24 19:57:31;;;;;;;6.70;6.20;;;21.10;99.90;;;;;;5072696;28;20227;-86
2022/08/24 19:59:59;;;;;;;6.10;5.70;;;21.10;99.90;;;;;;5052888;28;20280;-85
2022/08/24 20:02:26;;;;;;;6.50;6.10;;;21.10;99.90;;;;;;5052163;28;20168;-84
2022/08/24 20:04:51;;;;;;;6.67;5.80;;;21.10;99.90;;;;;;5052814;28;20175;-85
2022/08/24 20:07:17;;;;;;;6.47;5.93;;;21.00;99.90;;;;;;5061845;28;20178;-84
2022/08/24 20:09:43;;;;;;;6.83;6.13;;;21.00;99.90;;;;;;5066279;28;20583;-85
2022/08/24 20:12:10;;;;;;;6.77;6.20;;;21.00;99.90;;;;;;5055941;28;20188;-85
2022/08/24 20:14:36;;;;;;;6.30;5.90;;;21.00;99.90;;;;;;5053556;28;20655;-85
2022/08/24 20:17:02;;;;;;;6.63;6.03;;;21.00;99.90;;;;;;5052906;28;20226;-85
2022/08/24 20:19:29;;;;;;;7.17;6.47;;;21.00;99.90;;;;;;5053172;28;20183;-85
2022/08/24 20:21:55;;;;;;;6.80;6.20;;;21.00;99.90;;;;;;5050826;28;20180;-85
2022/08/24 20:24:21;;;;;;;6.07;5.57;;;21.00;99.90;;;;;;5052788;28;20180;-85
2022/08/24 20:26:46;;;;;;;6.27;5.73;;;21.10;99.90;;;;;;5051067;28;20271;-84
2022/08/24 20:29:12;;;;;;;6.60;6.00;;;21.10;99.90;;;;;;5065422;28;20284;-85
2022/08/24 20:31:39;;;;;;;6.57;6.17;;;21.20;99.90;;;;;;5076242;28;20182;-84
2022/08/24 20:34:05;;;;;;;5.83;5.43;;;21.20;99.90;;;;;;5072160;28;20922;-84
2022/08/24 20:36:36;;;;;;;6.57;5.80;;;21.10;99.90;;;;;;5053213;28;20175;-85
2022/08/24 20:39:06;;;;;;;6.73;5.53;;;21.00;99.90;;;;;;5059996;28;20195;-84
2022/08/24 20:41:32;;;;;;;6.37;5.87;;;21.00;99.90;;;;;;5050216;28;20194;-84
2022/08/24 20:43:58;;;;;;;6.00;5.60;;;20.90;99.90;;;;;;5052643;28;20180;-84
2022/08/24 20:46:25;;;;;;;6.13;5.73;;;20.90;99.90;;;;;;5068968;28;20171;-83
2022/08/24 20:48:52;;;;;;;6.33;5.80;;;20.80;99.90;;;;;;5071495;28;20178;-85
2022/08/24 20:51:18;;;;;;;6.57;6.00;;;20.90;99.90;;;;;;5072142;28;20171;-85
2022/08/24 20:53:44;;;;;;;6.40;5.87;;;20.80;99.90;;;;;;5071193;28;20179;-84
2022/08/24 20:56:23;;;;;;;6.23;5.73;;;20.80;99.90;;;;;;5070966;28;20185;-84
2022/08/24 20:58:49;;;;;;;5.87;5.37;;;20.80;99.90;;;;;;5069259;28;20263;-82
2022/08/24 21:01:15;;;;;;;6.47;5.97;;;20.80;99.90;;;;;;5069249;28;20182;-84
2022/08/24 21:03:41;;;;;;;7.30;5.53;;;20.80;99.90;;;;;;5077291;28;20171;-84
2022/08/24 21:06:12;;;;;;;6.33;5.93;;;20.70;99.90;;;;;;5068209;28;20179;-85
2022/08/24 21:08:40;;;;;;;6.73;6.30;;;20.70;99.90;;;;;;5070386;28;20162;-85
2022/08/24 21:11:07;;;;;;;6.33;5.83;;;20.60;99.90;;;;;;5071034;28;20255;-84
2022/08/24 21:13:34;;;;;;;5.90;5.50;;;20.60;99.90;;;;;;5071065;28;20316;-85
2022/08/24 21:16:04;;;;;;;6.20;5.60;;;20.60;99.90;;;;;;5069190;28;20179;-84
2022/08/24 21:18:33;;;;;;;6.97;6.43;;;20.60;99.90;;;;;;5070948;28;20352;-84
2022/08/24 21:20:59;;;;;;;6.70;6.20;;;20.60;99.90;;;;;;5070962;28;20224;-84
2022/08/24 21:23:26;;;;;;;6.80;6.23;;;20.60;99.90;;;;;;5070886;28;20178;-82
2022/08/24 21:25:52;;;;;;;6.37;5.90;;;20.60;99.90;;;;;;5070525;28;20167;-83
2022/08/24 21:28:20;;;;;;;6.27;5.80;;;20.60;99.90;;;;;;5070757;28;20174;-81
2022/08/24 21:30:47;;;;;;;7.47;5.70;;;20.60;99.90;;;;;;5070885;28;20694;-82
2022/08/24 21:35:59;;;;;;;6.27;5.77;;;20.80;99.90;;;;;;5070592;28;20376;-83
2022/08/24 21:38:25;;;;;;;5.67;5.27;;;20.70;99.90;;;;;;5068576;28;20234;-82
2022/08/24 21:40:51;;;;;;;6.47;5.97;;;20.70;99.90;;;;;;5070706;28;20175;-83
2022/08/24 21:43:20;;;;;;;6.73;6.23;;;20.70;99.90;;;;;;5070630;28;20179;-82
2022/08/24 21:45:48;;;;;;;6.43;5.80;;;20.70;99.90;;;;;;5070763;28;20266;-82
2022/08/24 21:48:15;;;;;;;6.27;5.70;;;20.60;99.90;;;;;;5069794;28;20230;-82
2022/08/24 21:50:42;;;;;;;6.80;6.20;;;20.60;99.90;;;;;;5079975;28;20186;-82
2022/08/24 21:53:07;;;;;;;6.73;5.87;;;20.60;99.90;;;;;;5087668;28;20209;-82
2022/08/24 21:55:33;;;;;;;6.60;6.10;;;20.60;99.90;;;;;;5074487;28;20627;-83
2022/08/24 21:57:59;;;;;;;7.00;6.40;;;20.60;99.90;;;;;;5070431;28;20788;-83
2022/08/24 22:00:25;;;;;;;7.57;5.83;;;20.60;99.90;;;;;;5070719;28;20167;-82
2022/08/24 22:02:51;;;;;;;5.97;5.43;;;20.60;99.90;;;;;;5070241;28;20179;-83
2022/08/24 22:05:17;;;;;;;6.57;5.87;;;20.50;99.90;;;;;;5070025;28;20254;-83
2022/08/24 22:07:43;;;;;;;5.83;5.43;;;20.50;99.90;;;;;;5069368;28;20199;-83
2022/08/24 22:10:10;;;;;;;6.27;5.67;;;20.50;99.90;;;;;;5069788;28;20187;-82
2022/08/24 22:12:41;;;;;;;7.20;5.73;;;20.50;99.90;;;;;;5070579;28;20259;-84
2022/08/24 22:15:10;;;;;;;6.40;5.77;;;20.50;99.90;;;;;;5070244;28;20586;-84
2022/08/24 22:17:36;;;;;;;5.60;5.20;;;20.50;99.90;;;;;;5070147;28;20191;-83
2022/08/24 22:20:05;;;;;;;6.20;5.70;;;20.50;99.90;;;;;;5070073;28;20178;-83
2022/08/24 22:22:31;;;;;;;5.77;5.27;;;20.40;99.90;;;;;;5070004;28;20179;-84
2022/08/24 22:24:57;;;;;;;5.83;5.43;;;20.30;99.90;;;;;;5070043;28;20181;-83
2022/08/24 22:27:22;;;;;;;6.73;5.77;;;20.40;99.90;;;;;;5070037;28;20550;-84
2022/08/24 22:29:48;;;;;;;5.93;5.47;;;20.40;99.90;;;;;;5070361;28;20171;-84
2022/08/24 22:32:14;;;;;;;6.13;5.60;;;20.30;99.90;;;;;;5070011;28;20171;-83
2022/08/24 22:34:40;;;;;;;6.43;5.73;;;20.30;99.90;;;;;;5069939;28;20179;-83
2022/08/24 22:37:05;;;;;;;6.43;5.83;;;20.30;99.90;;;;;;5069314;28;20891;-83
2022/08/24 22:39:31;;;;;;;6.23;5.83;;;20.30;99.90;;;;;;5070795;28;20197;-83
2022/08/24 22:42:00;;;;;;;5.57;5.17;;;20.20;99.90;;;;;;5070387;28;20175;-84
2022/08/24 22:44:26;;;;;;;6.00;5.60;;;20.20;99.90;;;;;;5071761;28;20784;-81
2022/08/24 22:46:56;;;;;;;5.70;5.37;;;20.20;99.90;;;;;;5073967;28;20167;-83
2022/08/24 22:49:28;;;;;;;6.20;5.50;;;20.20;99.90;;;;;;5074197;28;20182;-82
2022/08/24 22:51:54;;;;;;;6.27;5.73;;;20.20;99.90;;;;;;5073801;28;20156;-82
2022/08/24 22:54:21;;;;;;;6.13;5.57;;;20.20;99.90;;;;;;5073245;28;20266;-82
2022/08/24 22:56:50;;;;;;;7.67;5.80;;;20.20;99.90;;;;;;5073091;28;20163;-82
2022/08/24 22:59:33;;;;;;;6.03;5.53;;;20.10;99.90;;;;;;5072429;28;20158;-83
2022/08/24 23:02:02;;;;;;;6.33;5.77;;;20.10;99.90;;;;;;5073341;28;20252;-83
2022/08/24 23:04:31;;;;;;;5.67;5.23;;;20.00;99.90;;;;;;5073593;28;20509;-82
2022/08/24 23:06:57;;;;;;;5.93;5.53;;;20.00;99.90;;;;;;5073558;28;20545;-82
2022/08/24 23:09:24;;;;;;;6.00;5.43;;;20.00;99.90;;;;;;5073663;28;20252;-82
2022/08/24 23:11:51;;;;;;;6.33;5.83;;;20.00;99.90;;;;;;5073789;28;20175;-82
2022/08/24 23:14:18;;;;;;;5.77;5.37;;;20.00;99.90;;;;;;5071631;28;20260;-83
2022/08/24 23:16:48;;;;;;;6.17;5.10;;;20.00;99.90;;;;;;5071798;28;20176;-83
2022/08/24 23:22:07;;;;;;;6.00;5.50;;;19.90;99.90;;;;;;5073163;28;20179;-83
2022/08/24 23:24:34;;;;;;;7.20;5.87;;;19.90;99.90;;;;;;5073051;28;20172;-83
2022/08/24 23:27:01;;;;;;;6.00;5.60;;;19.80;99.90;;;;;;5073092;28;20707;-83
2022/08/24 23:29:27;;;;;;;6.03;5.57;;;19.90;99.90;;;;;;5073182;28;20210;-83
2022/08/24 23:31:53;;;;;;;6.00;5.50;;;19.90;99.90;;;;;;5075497;28;20175;-82
2022/08/24 23:34:19;;;;;;;6.03;5.57;;;19.90;99.90;;;;;;5087048;28;20226;-83
2022/08/24 23:36:45;;;;;;;5.80;5.40;;;19.80;99.90;;;;;;5084623;28;20209;-83
2022/08/24 23:39:12;;;;;;;5.67;5.37;;;19.80;99.90;;;;;;5079164;28;20175;-82
2022/08/24 23:41:40;;;;;;;5.47;5.07;;;19.80;99.90;;;;;;5074674;28;20252;-82
2022/08/24 23:44:16;;;;;;;5.80;5.40;;;19.80;99.90;;;;;;5073659;28;20179;-82
2022/08/24 23:46:42;;;;;;;6.87;6.17;;;19.80;99.90;;;;;;5072654;28;20214;-82
2022/08/24 23:49:09;;;;;;;5.97;5.37;;;19.80;99.90;;;;;;5072806;28;20163;-83
2022/08/24 23:51:36;;;;;;;6.20;5.60;;;19.80;99.90;;;;;;5072139;28;20194;-83
2022/08/24 23:54:04;;;;;;;6.00;5.60;;;19.80;99.90;;;;;;5072445;28;20246;-83
2022/08/24 23:56:32;;;;;;;6.13;5.57;;;19.80;99.90;;;;;;5072377;28;20202;-83
2022/08/24 23:59:01;;;;;;;5.80;5.40;;;19.90;99.90;;;;;;5072612;28;20211;-84
